sensor_id;sensor_type;location;lat;lon;timestamp;P1;durP1;ratioP1;P2;durP2;ratioP2
33810;SDS011;20119;48.334;16.206;2023-07-31T02:10:15;2.88;;;2.58;;
33810;SDS011;20119;48.334;16.206;2023-07-31T02:18:00;2.92;;;2.58;;
33810;SDS011;20119;48.334;16.206;2023-07-31T02:42:09;2.92;;;2.40;;
33810;SDS011;20119;48.334;16.206;2023-07-31T02:44:49;4.82;;;2.80;;
33810;SDS011;20119;48.334;16.206;2023-07-31T03:13:29;3.75;;;3.00;;
33810;SDS011;20119;48.334;16.206;2023-07-31T03:15:59;3.67;;;3.20;;
33810;SDS011;20119;48.334;16.206;2023-07-31T03:18:30;5.20;;;2.80;;
33810;SDS011;20119;48.334;16.206;2023-07-31T03:21:04;5.70;;;3.33;;
33810;SDS011;20119;48.334;16.206;2023-07-31T03:23:35;4.30;;;3.20;;
33810;SDS011;20119;48.334;16.206;2023-07-31T03:26:06;4.65;;;3.10;;
33810;SDS011;20119;48.334;16.206;2023-07-31T04:07:56;3.13;;;2.83;;
33810;SDS011;20119;48.334;16.206;2023-07-31T04:26:02;7.35;;;3.78;;
33810;SDS011;20119;48.334;16.206;2023-07-31T04:28:36;5.50;;;3.42;;
33810;SDS011;20119;48.334;16.206;2023-07-31T04:49:38;5.65;;;3.92;;
33810;SDS011;20119;48.334;16.206;2023-07-31T05:46:58;5.95;;;3.20;;
33810;SDS011;20119;48.334;16.206;2023-07-31T05:49:25;3.78;;;2.75;;
33810;SDS011;20119;48.334;16.206;2023-07-31T05:51:52;3.03;;;2.72;;
33810;SDS011;20119;48.334;16.206;2023-07-31T06:36:05;4.50;;;2.55;;
33810;SDS011;20119;48.334;16.206;2023-07-31T06:38:33;6.18;;;2.40;;
33810;SDS011;20119;48.334;16.206;2023-07-31T06:41:00;4.50;;;2.60;;
33810;SDS011;20119;48.334;16.206;2023-07-31T06:43:27;2.95;;;2.10;;
33810;SDS011;20119;48.334;16.206;2023-07-31T06:45:54;5.18;;;2.38;;
33810;SDS011;20119;48.334;16.206;2023-07-31T06:48:21;5.80;;;2.10;;
33810;SDS011;20119;48.334;16.206;2023-07-31T06:50:48;2.38;;;1.85;;
33810;SDS011;20119;48.334;16.206;2023-07-31T06:53:17;5.55;;;2.20;;
33810;SDS011;20119;48.334;16.206;2023-07-31T06:55:46;3.83;;;2.13;;
33810;SDS011;20119;48.334;16.206;2023-07-31T06:58:13;3.15;;;1.92;;
33810;SDS011;20119;48.334;16.206;2023-07-31T07:00:40;3.33;;;1.70;;
33810;SDS011;20119;48.334;16.206;2023-07-31T07:08:31;1.83;;;1.45;;
33810;SDS011;20119;48.334;16.206;2023-07-31T07:10:58;3.20;;;1.80;;
33810;SDS011;20119;48.334;16.206;2023-07-31T07:13:25;2.67;;;1.70;;
33810;SDS011;20119;48.334;16.206;2023-07-31T07:15:52;5.25;;;1.95;;
33810;SDS011;20119;48.334;16.206;2023-07-31T07:18:21;3.42;;;1.73;;
33810;SDS011;20119;48.334;16.206;2023-07-31T07:23:43;3.55;;;1.70;;
33810;SDS011;20119;48.334;16.206;2023-07-31T07:26:11;2.55;;;1.60;;
33810;SDS011;20119;48.334;16.206;2023-07-31T07:28:38;4.65;;;1.33;;
33810;SDS011;20119;48.334;16.206;2023-07-31T07:31:05;3.60;;;1.48;;
33810;SDS011;20119;48.334;16.206;2023-07-31T07:33:32;5.70;;;1.73;;
33810;SDS011;20119;48.334;16.206;2023-07-31T07:36:00;3.58;;;1.50;;
33810;SDS011;20119;48.334;16.206;2023-07-31T07:38:27;2.95;;;1.40;;
33810;SDS011;20119;48.334;16.206;2023-07-31T07:40:56;4.00;;;1.80;;
33810;SDS011;20119;48.334;16.206;2023-07-31T07:43:23;2.85;;;1.48;;
33810;SDS011;20119;48.334;16.206;2023-07-31T07:45:50;5.75;;;1.92;;
33810;SDS011;20119;48.334;16.206;2023-07-31T07:48:17;3.53;;;1.65;;
33810;SDS011;20119;48.334;16.206;2023-07-31T07:50:44;4.55;;;1.63;;
33810;SDS011;20119;48.334;16.206;2023-07-31T07:53:11;2.75;;;1.63;;
33810;SDS011;20119;48.334;16.206;2023-07-31T07:55:38;4.20;;;1.60;;
33810;SDS011;20119;48.334;16.206;2023-07-31T07:58:07;4.45;;;1.83;;
33810;SDS011;20119;48.334;16.206;2023-07-31T08:00:34;4.97;;;1.60;;
33810;SDS011;20119;48.334;16.206;2023-07-31T08:03:01;2.22;;;1.50;;
33810;SDS011;20119;48.334;16.206;2023-07-31T08:05:28;3.35;;;1.70;;
33810;SDS011;20119;48.334;16.206;2023-07-31T08:07:59;2.80;;;1.50;;
33810;SDS011;20119;48.334;16.206;2023-07-31T08:10:26;3.03;;;1.40;;
33810;SDS011;20119;48.334;16.206;2023-07-31T08:12:53;2.33;;;1.20;;
33810;SDS011;20119;48.334;16.206;2023-07-31T08:15:21;2.67;;;1.33;;
33810;SDS011;20119;48.334;16.206;2023-07-31T08:17:48;3.33;;;1.45;;
33810;SDS011;20119;48.334;16.206;2023-07-31T08:20:15;4.10;;;1.65;;
33810;SDS011;20119;48.334;16.206;2023-07-31T08:22:42;2.70;;;1.30;;
33810;SDS011;20119;48.334;16.206;2023-07-31T08:25:09;4.20;;;1.60;;
33810;SDS011;20119;48.334;16.206;2023-07-31T08:27:35;4.68;;;1.42;;
33810;SDS011;20119;48.334;16.206;2023-07-31T08:30:03;5.85;;;1.75;;
33810;SDS011;20119;48.334;16.206;2023-07-31T08:32:32;4.65;;;1.40;;
33810;SDS011;20119;48.334;16.206;2023-07-31T08:34:59;5.32;;;1.40;;
33810;SDS011;20119;48.334;16.206;2023-07-31T08:37:25;4.03;;;1.40;;
33810;SDS011;20119;48.334;16.206;2023-07-31T08:39:52;3.58;;;1.33;;
33810;SDS011;20119;48.334;16.206;2023-07-31T08:42:19;3.45;;;1.20;;
33810;SDS011;20119;48.334;16.206;2023-07-31T08:44:46;3.22;;;1.38;;
33810;SDS011;20119;48.334;16.206;2023-07-31T08:47:14;3.38;;;1.10;;
33810;SDS011;20119;48.334;16.206;2023-07-31T08:49:44;4.45;;;1.30;;
33810;SDS011;20119;48.334;16.206;2023-07-31T08:52:13;3.65;;;1.50;;
33810;SDS011;20119;48.334;16.206;2023-07-31T08:54:40;3.17;;;1.35;;
33810;SDS011;20119;48.334;16.206;2023-07-31T08:57:07;3.38;;;1.40;;
33810;SDS011;20119;48.334;16.206;2023-07-31T08:59:37;3.58;;;1.55;;
33810;SDS011;20119;48.334;16.206;2023-07-31T09:02:06;3.78;;;1.70;;
33810;SDS011;20119;48.334;16.206;2023-07-31T09:04:34;3.13;;;1.50;;
33810;SDS011;20119;48.334;16.206;2023-07-31T09:07:03;4.72;;;1.33;;
33810;SDS011;20119;48.334;16.206;2023-07-31T09:09:31;5.50;;;1.80;;
33810;SDS011;20119;48.334;16.206;2023-07-31T09:11:58;5.22;;;1.33;;
33810;SDS011;20119;48.334;16.206;2023-07-31T09:14:25;4.70;;;1.23;;
33810;SDS011;20119;48.334;16.206;2023-07-31T09:16:53;7.05;;;2.10;;
33810;SDS011;20119;48.334;16.206;2023-07-31T09:19:27;4.30;;;1.30;;
33810;SDS011;20119;48.334;16.206;2023-07-31T09:21:55;3.28;;;1.40;;
33810;SDS011;20119;48.334;16.206;2023-07-31T09:24:27;3.67;;;1.40;;
33810;SDS011;20119;48.334;16.206;2023-07-31T09:26:55;5.05;;;1.88;;
33810;SDS011;20119;48.334;16.206;2023-07-31T09:29:23;4.45;;;2.10;;
33810;SDS011;20119;48.334;16.206;2023-07-31T09:31:51;3.55;;;1.60;;
33810;SDS011;20119;48.334;16.206;2023-07-31T09:34:19;3.00;;;1.55;;
33810;SDS011;20119;48.334;16.206;2023-07-31T09:36:46;3.13;;;1.52;;
33810;SDS011;20119;48.334;16.206;2023-07-31T09:39:15;4.50;;;1.33;;
33810;SDS011;20119;48.334;16.206;2023-07-31T09:41:46;2.88;;;1.40;;
33810;SDS011;20119;48.334;16.206;2023-07-31T09:44:20;4.43;;;1.38;;
33810;SDS011;20119;48.334;16.206;2023-07-31T09:46:47;4.18;;;1.52;;
33810;SDS011;20119;48.334;16.206;2023-07-31T09:49:14;4.47;;;1.88;;
33810;SDS011;20119;48.334;16.206;2023-07-31T09:51:42;3.97;;;2.47;;
33810;SDS011;20119;48.334;16.206;2023-07-31T09:54:09;3.47;;;1.52;;
33810;SDS011;20119;48.334;16.206;2023-07-31T09:56:38;4.72;;;1.70;;
33810;SDS011;20119;48.334;16.206;2023-07-31T09:59:09;4.93;;;2.03;;
33810;SDS011;20119;48.334;16.206;2023-07-31T10:04:07;2.80;;;1.48;;
33810;SDS011;20119;48.334;16.206;2023-07-31T10:06:35;2.83;;;1.35;;
33810;SDS011;20119;48.334;16.206;2023-07-31T10:09:03;2.47;;;1.35;;
33810;SDS011;20119;48.334;16.206;2023-07-31T10:11:34;3.55;;;1.40;;
33810;SDS011;20119;48.334;16.206;2023-07-31T10:14:04;2.35;;;1.50;;
33810;SDS011;20119;48.334;16.206;2023-07-31T10:16:34;3.20;;;1.50;;
33810;SDS011;20119;48.334;16.206;2023-07-31T10:19:04;2.58;;;1.45;;
33810;SDS011;20119;48.334;16.206;2023-07-31T10:21:33;3.38;;;1.50;;
33810;SDS011;20119;48.334;16.206;2023-07-31T10:24:02;5.40;;;1.42;;
33810;SDS011;20119;48.334;16.206;2023-07-31T10:26:31;3.50;;;1.50;;
33810;SDS011;20119;48.334;16.206;2023-07-31T10:28:59;3.53;;;1.30;;
33810;SDS011;20119;48.334;16.206;2023-07-31T10:31:26;3.13;;;1.55;;
33810;SDS011;20119;48.334;16.206;2023-07-31T10:33:55;5.05;;;1.55;;
33810;SDS011;20119;48.334;16.206;2023-07-31T10:36:24;3.03;;;1.35;;
33810;SDS011;20119;48.334;16.206;2023-07-31T10:38:52;3.40;;;1.33;;
33810;SDS011;20119;48.334;16.206;2023-07-31T10:41:19;4.45;;;1.30;;
33810;SDS011;20119;48.334;16.206;2023-07-31T10:43:46;3.90;;;1.40;;
33810;SDS011;20119;48.334;16.206;2023-07-31T10:46:13;2.75;;;1.40;;
33810;SDS011;20119;48.334;16.206;2023-07-31T10:48:41;2.30;;;1.40;;
33810;SDS011;20119;48.334;16.206;2023-07-31T10:51:10;4.15;;;1.48;;
33810;SDS011;20119;48.334;16.206;2023-07-31T10:53:42;2.42;;;1.40;;
33810;SDS011;20119;48.334;16.206;2023-07-31T10:56:09;2.70;;;1.52;;
33810;SDS011;20119;48.334;16.206;2023-07-31T10:58:38;4.53;;;1.52;;
33810;SDS011;20119;48.334;16.206;2023-07-31T11:01:05;3.30;;;1.60;;
33810;SDS011;20119;48.334;16.206;2023-07-31T11:03:42;3.38;;;1.30;;
33810;SDS011;20119;48.334;16.206;2023-07-31T11:06:12;3.13;;;1.40;;
33810;SDS011;20119;48.334;16.206;2023-07-31T11:08:43;2.58;;;1.20;;
33810;SDS011;20119;48.334;16.206;2023-07-31T11:11:11;2.83;;;1.45;;
33810;SDS011;20119;48.334;16.206;2023-07-31T11:13:40;2.20;;;1.27;;
33810;SDS011;20119;48.334;16.206;2023-07-31T11:16:08;3.88;;;1.40;;
33810;SDS011;20119;48.334;16.206;2023-07-31T11:18:38;2.45;;;1.38;;
33810;SDS011;20119;48.334;16.206;2023-07-31T11:21:05;2.77;;;1.33;;
33810;SDS011;20119;48.334;16.206;2023-07-31T11:23:36;4.82;;;1.50;;
33810;SDS011;20119;48.334;16.206;2023-07-31T11:26:04;3.33;;;1.40;;
33810;SDS011;20119;48.334;16.206;2023-07-31T11:28:32;3.63;;;1.40;;
33810;SDS011;20119;48.334;16.206;2023-07-31T11:31:00;2.38;;;1.40;;
33810;SDS011;20119;48.334;16.206;2023-07-31T11:33:28;3.13;;;1.58;;
33810;SDS011;20119;48.334;16.206;2023-07-31T11:35:58;2.55;;;1.33;;
33810;SDS011;20119;48.334;16.206;2023-07-31T11:38:26;3.80;;;1.88;;
33810;SDS011;20119;48.334;16.206;2023-07-31T11:40:59;2.35;;;1.20;;
33810;SDS011;20119;48.334;16.206;2023-07-31T11:43:30;4.43;;;1.63;;
33810;SDS011;20119;48.334;16.206;2023-07-31T11:45:59;2.72;;;1.52;;
33810;SDS011;20119;48.334;16.206;2023-07-31T11:48:28;3.67;;;1.40;;
33810;SDS011;20119;48.334;16.206;2023-07-31T11:51:00;3.85;;;1.40;;
33810;SDS011;20119;48.334;16.206;2023-07-31T11:53:29;2.67;;;1.25;;
33810;SDS011;20119;48.334;16.206;2023-07-31T11:56:03;2.28;;;1.40;;
33810;SDS011;20119;48.334;16.206;2023-07-31T11:58:30;3.88;;;1.42;;
33810;SDS011;20119;48.334;16.206;2023-07-31T12:01:01;3.30;;;1.30;;
33810;SDS011;20119;48.334;16.206;2023-07-31T12:03:29;5.65;;;1.50;;
33810;SDS011;20119;48.334;16.206;2023-07-31T12:05:56;2.90;;;1.35;;
33810;SDS011;20119;48.334;16.206;2023-07-31T12:08:24;4.10;;;1.40;;
33810;SDS011;20119;48.334;16.206;2023-07-31T12:10:51;3.33;;;1.33;;
33810;SDS011;20119;48.334;16.206;2023-07-31T12:13:21;4.10;;;1.90;;
33810;SDS011;20119;48.334;16.206;2023-07-31T12:15:49;4.90;;;1.30;;
33810;SDS011;20119;48.334;16.206;2023-07-31T12:18:21;3.17;;;1.80;;
33810;SDS011;20119;48.334;16.206;2023-07-31T12:20:49;5.20;;;3.00;;
33810;SDS011;20119;48.334;16.206;2023-07-31T12:23:20;3.17;;;1.40;;
33810;SDS011;20119;48.334;16.206;2023-07-31T12:25:59;4.20;;;1.30;;
33810;SDS011;20119;48.334;16.206;2023-07-31T12:28:28;2.63;;;1.23;;
33810;SDS011;20119;48.334;16.206;2023-07-31T12:30:56;2.75;;;1.30;;
33810;SDS011;20119;48.334;16.206;2023-07-31T12:33:29;4.82;;;1.58;;
33810;SDS011;20119;48.334;16.206;2023-07-31T12:35:57;3.33;;;1.33;;
33810;SDS011;20119;48.334;16.206;2023-07-31T12:38:24;3.88;;;1.42;;
33810;SDS011;20119;48.334;16.206;2023-07-31T12:40:51;4.13;;;2.03;;
33810;SDS011;20119;48.334;16.206;2023-07-31T12:43:18;2.80;;;1.50;;
33810;SDS011;20119;48.334;16.206;2023-07-31T12:45:50;4.20;;;1.33;;
33810;SDS011;20119;48.334;16.206;2023-07-31T12:48:17;4.40;;;1.33;;
33810;SDS011;20119;48.334;16.206;2023-07-31T12:50:44;2.90;;;1.30;;
33810;SDS011;20119;48.334;16.206;2023-07-31T12:53:11;3.58;;;1.33;;
33810;SDS011;20119;48.334;16.206;2023-07-31T12:55:38;2.97;;;1.40;;
33810;SDS011;20119;48.334;16.206;2023-07-31T12:58:05;3.30;;;1.60;;
33810;SDS011;20119;48.334;16.206;2023-07-31T13:00:32;3.30;;;1.30;;
33810;SDS011;20119;48.334;16.206;2023-07-31T13:03:00;2.80;;;1.42;;
33810;SDS011;20119;48.334;16.206;2023-07-31T13:05:28;3.50;;;1.30;;
33810;SDS011;20119;48.334;16.206;2023-07-31T13:07:55;5.55;;;1.50;;
33810;SDS011;20119;48.334;16.206;2023-07-31T13:10:22;3.95;;;1.60;;
33810;SDS011;20119;48.334;16.206;2023-07-31T13:12:51;2.17;;;1.30;;
33810;SDS011;20119;48.334;16.206;2023-07-31T13:15:18;5.22;;;1.17;;
33810;SDS011;20119;48.334;16.206;2023-07-31T13:17:45;4.53;;;1.58;;
33810;SDS011;20119;48.334;16.206;2023-07-31T13:20:14;3.40;;;1.50;;
33810;SDS011;20119;48.334;16.206;2023-07-31T13:22:40;4.72;;;1.45;;
33810;SDS011;20119;48.334;16.206;2023-07-31T13:25:09;4.93;;;1.30;;
33810;SDS011;20119;48.334;16.206;2023-07-31T13:27:39;3.03;;;1.40;;
33810;SDS011;20119;48.334;16.206;2023-07-31T13:30:06;2.70;;;1.60;;
33810;SDS011;20119;48.334;16.206;2023-07-31T13:32:34;3.70;;;1.52;;
33810;SDS011;20119;48.334;16.206;2023-07-31T13:35:03;2.15;;;1.30;;
33810;SDS011;20119;48.334;16.206;2023-07-31T13:37:32;3.28;;;1.40;;
33810;SDS011;20119;48.334;16.206;2023-07-31T13:39:59;8.30;;;1.30;;
33810;SDS011;20119;48.334;16.206;2023-07-31T13:42:26;5.53;;;1.63;;
33810;SDS011;20119;48.334;16.206;2023-07-31T13:44:53;4.97;;;1.40;;
33810;SDS011;20119;48.334;16.206;2023-07-31T13:47:21;2.47;;;1.40;;
33810;SDS011;20119;48.334;16.206;2023-07-31T13:49:48;2.00;;;1.58;;
33810;SDS011;20119;48.334;16.206;2023-07-31T13:52:15;2.75;;;1.40;;
33810;SDS011;20119;48.334;16.206;2023-07-31T13:54:43;6.22;;;1.50;;
33810;SDS011;20119;48.334;16.206;2023-07-31T13:57:10;3.50;;;1.40;;
33810;SDS011;20119;48.334;16.206;2023-07-31T13:59:37;4.20;;;1.40;;
33810;SDS011;20119;48.334;16.206;2023-07-31T14:02:04;2.45;;;1.20;;
33810;SDS011;20119;48.334;16.206;2023-07-31T14:04:31;3.33;;;1.30;;
33810;SDS011;20119;48.334;16.206;2023-07-31T14:06:58;3.13;;;1.23;;
33810;SDS011;20119;48.334;16.206;2023-07-31T14:09:25;3.15;;;1.50;;
33810;SDS011;20119;48.334;16.206;2023-07-31T14:11:54;5.72;;;1.40;;
33810;SDS011;20119;48.334;16.206;2023-07-31T14:14:21;3.72;;;1.48;;
33810;SDS011;20119;48.334;16.206;2023-07-31T14:16:48;3.65;;;1.40;;
33810;SDS011;20119;48.334;16.206;2023-07-31T14:19:15;2.17;;;1.35;;
33810;SDS011;20119;48.334;16.206;2023-07-31T14:21:42;2.70;;;1.30;;
33810;SDS011;20119;48.334;16.206;2023-07-31T14:24:09;3.42;;;1.42;;
33810;SDS011;20119;48.334;16.206;2023-07-31T14:26:36;3.00;;;1.52;;
33810;SDS011;20119;48.334;16.206;2023-07-31T14:29:05;4.38;;;1.63;;
33810;SDS011;20119;48.334;16.206;2023-07-31T14:31:31;3.47;;;1.38;;
33810;SDS011;20119;48.334;16.206;2023-07-31T14:33:58;2.47;;;1.40;;
33810;SDS011;20119;48.334;16.206;2023-07-31T14:36:25;3.78;;;1.45;;
33810;SDS011;20119;48.334;16.206;2023-07-31T14:38:52;4.43;;;1.63;;
33810;SDS011;20119;48.334;16.206;2023-07-31T14:41:19;1.40;;;1.15;;
33810;SDS011;20119;48.334;16.206;2023-07-31T14:43:46;1.90;;;1.30;;
33810;SDS011;20119;48.334;16.206;2023-07-31T14:46:15;4.03;;;1.50;;
33810;SDS011;20119;48.334;16.206;2023-07-31T14:48:42;3.50;;;1.40;;
33810;SDS011;20119;48.334;16.206;2023-07-31T14:51:08;2.45;;;1.73;;
33810;SDS011;20119;48.334;16.206;2023-07-31T14:53:35;3.63;;;1.60;;
33810;SDS011;20119;48.334;16.206;2023-07-31T14:56:02;4.93;;;1.40;;
33810;SDS011;20119;48.334;16.206;2023-07-31T14:58:29;2.95;;;1.50;;
33810;SDS011;20119;48.334;16.206;2023-07-31T15:00:56;2.50;;;1.40;;
33810;SDS011;20119;48.334;16.206;2023-07-31T15:03:25;2.58;;;1.52;;
33810;SDS011;20119;48.334;16.206;2023-07-31T15:05:51;2.38;;;1.33;;
33810;SDS011;20119;48.334;16.206;2023-07-31T15:08:18;3.55;;;1.50;;
33810;SDS011;20119;48.334;16.206;2023-07-31T15:10:45;3.00;;;1.60;;
33810;SDS011;20119;48.334;16.206;2023-07-31T15:13:12;2.47;;;1.45;;
33810;SDS011;20119;48.334;16.206;2023-07-31T15:15:39;2.30;;;1.50;;
33810;SDS011;20119;48.334;16.206;2023-07-31T15:18:06;4.10;;;1.63;;
33810;SDS011;20119;48.334;16.206;2023-07-31T15:20:34;2.65;;;1.52;;
33810;SDS011;20119;48.334;16.206;2023-07-31T15:23:02;3.42;;;1.55;;
33810;SDS011;20119;48.334;16.206;2023-07-31T15:25:29;2.67;;;1.55;;
33810;SDS011;20119;48.334;16.206;2023-07-31T15:27:55;2.20;;;1.40;;
33810;SDS011;20119;48.334;16.206;2023-07-31T15:30:23;4.57;;;1.70;;
33810;SDS011;20119;48.334;16.206;2023-07-31T15:32:50;3.05;;;1.70;;
33810;SDS011;20119;48.334;16.206;2023-07-31T15:35:20;2.50;;;1.50;;
33810;SDS011;20119;48.334;16.206;2023-07-31T15:37:48;3.15;;;1.70;;
33810;SDS011;20119;48.334;16.206;2023-07-31T15:40:15;2.80;;;1.40;;
33810;SDS011;20119;48.334;16.206;2023-07-31T15:42:42;2.95;;;1.42;;
33810;SDS011;20119;48.334;16.206;2023-07-31T15:45:09;3.25;;;1.40;;
33810;SDS011;20119;48.334;16.206;2023-07-31T15:47:37;2.13;;;1.38;;
33810;SDS011;20119;48.334;16.206;2023-07-31T15:50:05;4.03;;;1.70;;
33810;SDS011;20119;48.334;16.206;2023-07-31T15:52:33;2.28;;;1.40;;
33810;SDS011;20119;48.334;16.206;2023-07-31T15:55:01;1.90;;;1.40;;
33810;SDS011;20119;48.334;16.206;2023-07-31T15:57:31;4.15;;;1.45;;
33810;SDS011;20119;48.334;16.206;2023-07-31T15:59:58;1.85;;;1.50;;
33810;SDS011;20119;48.334;16.206;2023-07-31T16:02:25;3.25;;;1.85;;
33810;SDS011;20119;48.334;16.206;2023-07-31T16:04:52;2.25;;;1.60;;
33810;SDS011;20119;48.334;16.206;2023-07-31T16:07:19;2.88;;;1.70;;
33810;SDS011;20119;48.334;16.206;2023-07-31T16:09:48;1.90;;;1.52;;
33810;SDS011;20119;48.334;16.206;2023-07-31T16:12:17;6.18;;;1.73;;
33810;SDS011;20119;48.334;16.206;2023-07-31T16:14:44;4.20;;;1.77;;
33810;SDS011;20119;48.334;16.206;2023-07-31T16:17:11;1.95;;;1.67;;
33810;SDS011;20119;48.334;16.206;2023-07-31T16:19:41;3.45;;;1.73;;
33810;SDS011;20119;48.334;16.206;2023-07-31T16:22:08;3.45;;;1.80;;
33810;SDS011;20119;48.334;16.206;2023-07-31T16:24:35;2.75;;;1.85;;
33810;SDS011;20119;48.334;16.206;2023-07-31T16:27:02;2.28;;;1.70;;
33810;SDS011;20119;48.334;16.206;2023-07-31T16:29:30;2.47;;;1.50;;
33810;SDS011;20119;48.334;16.206;2023-07-31T16:31:57;3.45;;;1.85;;
33810;SDS011;20119;48.334;16.206;2023-07-31T16:34:24;3.17;;;1.80;;
33810;SDS011;20119;48.334;16.206;2023-07-31T16:36:52;3.05;;;2.08;;
33810;SDS011;20119;48.334;16.206;2023-07-31T16:39:19;2.70;;;1.70;;
33810;SDS011;20119;48.334;16.206;2023-07-31T16:41:46;2.95;;;1.65;;
33810;SDS011;20119;48.334;16.206;2023-07-31T16:44:13;2.08;;;1.60;;
33810;SDS011;20119;48.334;16.206;2023-07-31T16:46:42;3.47;;;1.77;;
33810;SDS011;20119;48.334;16.206;2023-07-31T16:49:09;4.22;;;1.60;;
33810;SDS011;20119;48.334;16.206;2023-07-31T16:51:36;2.80;;;1.80;;
33810;SDS011;20119;48.334;16.206;2023-07-31T16:54:03;2.35;;;1.70;;
33810;SDS011;20119;48.334;16.206;2023-07-31T16:56:30;2.63;;;1.60;;
33810;SDS011;20119;48.334;16.206;2023-07-31T16:58:57;3.38;;;1.80;;
33810;SDS011;20119;48.334;16.206;2023-07-31T17:01:24;2.75;;;1.80;;
33810;SDS011;20119;48.334;16.206;2023-07-31T17:03:57;3.50;;;1.80;;
33810;SDS011;20119;48.334;16.206;2023-07-31T17:06:25;2.63;;;1.83;;
33810;SDS011;20119;48.334;16.206;2023-07-31T17:08:52;5.07;;;1.85;;
33810;SDS011;20119;48.334;16.206;2023-07-31T17:11:20;3.15;;;1.75;;
33810;SDS011;20119;48.334;16.206;2023-07-31T17:13:48;2.17;;;1.67;;
33810;SDS011;20119;48.334;16.206;2023-07-31T17:16:15;3.28;;;1.70;;
33810;SDS011;20119;48.334;16.206;2023-07-31T17:18:43;3.33;;;1.70;;
33810;SDS011;20119;48.334;16.206;2023-07-31T17:21:11;2.53;;;1.90;;
33810;SDS011;20119;48.334;16.206;2023-07-31T17:23:39;4.75;;;1.85;;
33810;SDS011;20119;48.334;16.206;2023-07-31T17:26:06;4.13;;;1.77;;
33810;SDS011;20119;48.334;16.206;2023-07-31T17:28:37;3.00;;;1.80;;
33810;SDS011;20119;48.334;16.206;2023-07-31T17:31:04;3.17;;;1.70;;
33810;SDS011;20119;48.334;16.206;2023-07-31T17:33:31;3.00;;;1.80;;
33810;SDS011;20119;48.334;16.206;2023-07-31T17:35:58;2.50;;;2.00;;
33810;SDS011;20119;48.334;16.206;2023-07-31T17:38:30;2.03;;;1.67;;
33810;SDS011;20119;48.334;16.206;2023-07-31T17:40:57;2.53;;;1.50;;
33810;SDS011;20119;48.334;16.206;2023-07-31T17:43:24;2.70;;;1.70;;
33810;SDS011;20119;48.334;16.206;2023-07-31T17:45:52;3.20;;;1.73;;
33810;SDS011;20119;48.334;16.206;2023-07-31T17:48:19;2.97;;;1.80;;
33810;SDS011;20119;48.334;16.206;2023-07-31T17:50:49;4.05;;;1.90;;
33810;SDS011;20119;48.334;16.206;2023-07-31T17:53:17;2.92;;;2.00;;
33810;SDS011;20119;48.334;16.206;2023-07-31T17:55:47;4.30;;;2.08;;
33810;SDS011;20119;48.334;16.206;2023-07-31T17:58:14;2.97;;;1.90;;
33810;SDS011;20119;48.334;16.206;2023-07-31T18:00:41;2.78;;;1.70;;
33810;SDS011;20119;48.334;16.206;2023-07-31T18:03:09;2.20;;;1.80;;
33810;SDS011;20119;48.334;16.206;2023-07-31T18:05:37;3.15;;;2.00;;
33810;SDS011;20119;48.334;16.206;2023-07-31T18:08:04;3.67;;;1.90;;
33810;SDS011;20119;48.334;16.206;2023-07-31T18:10:32;3.08;;;1.95;;
33810;SDS011;20119;48.334;16.206;2023-07-31T18:13:00;6.47;;;1.90;;
33810;SDS011;20119;48.334;16.206;2023-07-31T18:15:28;3.28;;;1.85;;
33810;SDS011;20119;48.334;16.206;2023-07-31T18:17:55;4.07;;;1.90;;
33810;SDS011;20119;48.334;16.206;2023-07-31T18:20:22;3.85;;;2.10;;
33810;SDS011;20119;48.334;16.206;2023-07-31T18:22:49;4.28;;;2.10;;
33810;SDS011;20119;48.334;16.206;2023-07-31T18:25:16;4.00;;;1.90;;
33810;SDS011;20119;48.334;16.206;2023-07-31T18:27:44;5.88;;;2.00;;
33810;SDS011;20119;48.334;16.206;2023-07-31T18:30:20;4.63;;;1.85;;
33810;SDS011;20119;48.334;16.206;2023-07-31T18:32:50;5.20;;;2.03;;
33810;SDS011;20119;48.334;16.206;2023-07-31T18:35:40;3.28;;;2.28;;
33810;SDS011;20119;48.334;16.206;2023-07-31T18:38:21;3.97;;;2.13;;
33810;SDS011;20119;48.334;16.206;2023-07-31T18:40:51;4.50;;;2.10;;
33810;SDS011;20119;48.334;16.206;2023-07-31T18:45:49;4.40;;;2.13;;
33810;SDS011;20119;48.334;16.206;2023-07-31T18:48:18;2.85;;;1.95;;
33810;SDS011;20119;48.334;16.206;2023-07-31T18:53:21;3.55;;;2.05;;
33810;SDS011;20119;48.334;16.206;2023-07-31T19:03:58;4.97;;;2.33;;
33810;SDS011;20119;48.334;16.206;2023-07-31T19:06:44;2.95;;;2.20;;
33810;SDS011;20119;48.334;16.206;2023-07-31T19:09:38;2.90;;;1.98;;
33810;SDS011;20119;48.334;16.206;2023-07-31T19:12:58;3.35;;;2.20;;
33810;SDS011;20119;48.334;16.206;2023-07-31T19:18:20;3.15;;;2.10;;
33810;SDS011;20119;48.334;16.206;2023-07-31T20:10:16;7.43;;;2.42;;
33810;SDS011;20119;48.334;16.206;2023-07-31T20:52:35;4.22;;;2.40;;
33810;SDS011;20119;48.334;16.206;2023-07-31T21:44:51;6.05;;;4.50;;
33810;SDS011;20119;48.334;16.206;2023-07-31T21:55:29;6.70;;;4.63;;
